Aérodrome :
LOGIN :

S'inscrire | Disclaimer

   EN    FR    IT 

 










Légende :    VFR   VFR Marginal   IFR   IFR Intensif   IFR Très Intensif
Visi : 
Plafond : 
>= 8 km
>= 3000ft
5 à 8 km
1000 à 3000 ft
1500m à 5 km
500 à 1000 ft
800 à 1500m
200 à 500 ft
< 800m
< 200 ft
Symboles :   Orages  Brouillard  Fortes neiges  Fortes précipitations  Vent > 20 kt
SIGMETs :   Divers  Orages  Givrage  Turbulence  Onde Orograph.  Cendres Volcan.






- Altitude de l'aérodrome : 1649 ft
- Code IATA : HHN


EDFH - Frankfurt-Hahn Rhineland-Palatinate

DERNIER METAR :
  • 301950Z 26012KT CAVOK 13/11 Q1014

METARs EXPIRÉS :
  • 301920Z 28011KT 9999 FEW025 13/12 Q1014
  • 301850Z 27019KT 9999 FEW025 14/12 Q1013
  • 301820Z 26016KT 9999 SCT015 14/13 Q1013
  • 301750Z 27018G30KT 9999 SCT016 BKN070CB 16/15 Q1012 RETSRA
  • 301720Z 25020G32KT 9999 VCTS BKN070CB 21/17 Q1012

TAF TAF EDFH
Valide du 30 à 18h jusqu'au 01 à 18h UTC


301700Z 3018/0118 26008KT 9999 FEW040
TEMPO 3018/3023 28020G35KT 3000 TSRA BKN008 BKN025CB
TEMPO 3023/0108 1500 -RA BR BKN003
TEMPO 0108/0110 BKN012



MET'MAP, la Météo Aéronautique d'un coup d'oeil ! - Copyright ORBIFLY Décembre 2007 - Disclaimer

ORBIFLY MET'MAP TEAM :

Programmation & Développement : Alexandra Zaïnal
Sur une idée originale de : Baudouin d'Aumeries
Soutien technique & logistique : Manuel Goepfert
Assistance : Marc-Olivier Méhu




SOURCES & CREDITS :

   NOAA